SVMG/PMV METAR and TAF weather

Enter ICAO airport designator
Station Type Date Time Source
SVMG METAR 2019/06/26 06:00 UTC NOAA

SVMG 260600Z /////KT 9999 FEW010 24/23 Q1011 NOSIG


Station Type Date Time Source
SVMG Decoded METAR 2019/06/26 06:00 UTC NOAA

Margarita / Del Carib, Venezuela (SVMG) 10-55N 063-59W
Jun 26, 2019 - 02:00 AM EDT / 2019.06.26 0600 UTC
Visibility: greater than 7 mile(s):0
Sky conditions: mostly clear
Temperature: 75 F (24 C)
Dew Point: 73 F (23 C)
Relative Humidity: 94%
Pressure (altimeter): 29.85 in. Hg (1011 hPa)
ob: SVMG 260600Z /////KT 9999 FEW010 24/23 Q1011 NOSIG
cycle: 6

Station Type Date Time Source
SVMG TAF 2019/06/26 06:08 UTC NOAA

TAF SVMG 260400Z 2606/2706 09010KT FEW016 TX31/1700Z TN24/1000Z
BECMG 2608/2612 07008KT SCT016

Example: see airport list